Time;durP1;ratioP1;P1;durP2;ratioP2;P2;SDS_P1;SDS_P2;PMS_P1;PMS_P2;Temp;Humidity;BMP_temperature;BMP_pressure;BME280_temperature;BME280_humidity;BME280_pressure;Samples;Min_cycle;Max_cycle;Signal;HPM_P1;HPM_P2
2021/09/15 00:01:34;;;;;;;;;;;;;;;-142.75;100.00;76093.94;5003924;28;19927;-82
2021/09/15 00:03:59;;;;;;;;;;;;;;;-142.75;100.00;76078.19;5001997;28;19933;-82
2021/09/15 00:06:24;;;;;;;;;;;;;;;-142.75;100.00;76074.25;5003592;28;20008;-83
2021/09/15 00:08:50;;;;;;;;;;;;;;;-142.75;100.00;76074.25;5005619;28;19940;-83
2021/09/15 00:11:17;;;;;;;;;;;;;;;-142.75;100.00;76088.03;5002205;28;19913;-81
2021/09/15 00:13:42;;;;;;;;;;;;;;;-142.75;100.00;76078.19;5005604;28;19933;-83
2021/09/15 00:16:08;;;;;;;;;;;;;;;-142.75;100.00;76076.22;4998384;28;19993;-82
2021/09/15 00:18:33;;;;;;;;;;;;;;;-142.75;100.00;76086.06;5004152;28;20389;-81
2021/09/15 00:20:58;;;;;;;;;;;;;;;-142.75;100.00;76090.00;5006260;28;19917;-83
2021/09/15 00:23:23;;;;;;;;;;;;;;;-142.75;100.00;76086.06;5000649;28;20271;-81
2021/09/15 00:25:48;;;;;;;;;;;;;;;-142.75;100.00;76086.06;4998651;28;20001;-82
2021/09/15 00:28:14;;;;;;;;;;;;;;;-142.75;100.00;76082.13;5003657;28;19956;-82
2021/09/15 00:30:39;;;;;;;;;;;;;;;-142.75;100.00;76082.13;5000290;28;19913;-82
2021/09/15 00:33:04;;;;;;;;;;;;;;;-142.75;100.00;76090.00;5003542;28;20302;-83
2021/09/15 00:35:29;;;;;;;;;;;;;;;-142.75;100.00;76091.97;5006058;28;19948;-82
2021/09/15 00:37:54;;;;;;;;;;;;;;;-142.75;100.00;76097.88;5001768;28;20000;-80
2021/09/15 00:40:19;;;;;;;;;;;;;;;-142.75;100.00;76099.84;4999329;28;19921;-83
2021/09/15 00:42:45;;;;;;;;;;;;;;;-142.75;100.00;76097.88;5002643;28;19921;-83
2021/09/15 00:45:10;;;;;;;;;;;;;;;-142.75;100.00;76091.97;4998565;28;19971;-82
2021/09/15 00:47:35;;;;;;;;;;;;;;;-142.75;100.00;76090.00;5006801;28;20395;-82
2021/09/15 00:50:01;;;;;;;;;;;;;;;-142.75;100.00;76078.19;5004475;28;20395;-84
2021/09/15 00:52:27;;;;;;;;;;;;;;;-142.75;100.00;76091.97;5001628;28;19937;-83
2021/09/15 00:54:52;;;;;;;;;;;;;;;-142.75;100.00;76097.88;4995522;28;19913;-82
2021/09/15 00:57:17;;;;;;;;;;;;;;;-142.75;100.00;76097.88;4999591;28;20070;-82
2021/09/15 00:59:43;;;;;;;;;;;;;;;-142.75;100.00;76090.00;4995991;28;19987;-81
2021/09/15 01:02:08;;;;;;;;;;;;;;;-142.75;100.00;76088.03;5003209;28;20483;-83
2021/09/15 01:04:33;;;;;;;;;;;;;;;-142.75;100.00;76095.91;5002880;28;20287;-82
2021/09/15 01:06:58;;;;;;;;;;;;;;;-142.75;100.00;76099.84;4999938;28;20016;-82
2021/09/15 01:09:24;;;;;;;;;;;;;;;-142.75;100.00;76111.66;4996214;28;19913;-82
2021/09/15 01:11:50;;;;;;;;;;;;;;;-142.75;100.00;76131.34;5001453;28;20245;-84
2021/09/15 01:14:15;;;;;;;;;;;;;;;-142.75;100.00;76137.25;4999612;28;20327;-83
2021/09/15 01:16:51;;;;;;;;;;;;;;;-142.75;100.00;76156.94;5007170;28;19914;-82
2021/09/15 01:19:16;;;;;;;;;;;;;;;-142.75;100.00;76160.88;5003707;28;19920;-82
2021/09/15 01:21:41;;;;;;;;;;;;;;;-142.75;100.00;76149.06;5002296;28;19914;-83
2021/09/15 01:24:07;;;;;;;;;;;;;;;-142.75;100.00;76160.88;5005426;28;19920;-82
2021/09/15 01:26:33;;;;;;;;;;;;;;;-142.75;100.00;76149.06;5003528;28;19991;-80
2021/09/15 01:28:58;;;;;;;;;;;;;;;-142.75;100.00;76158.91;5002530;28;19920;-81
2021/09/15 01:31:23;;;;;;;;;;;;;;;-142.75;100.00;76145.13;4999610;28;19917;-82
2021/09/15 01:33:48;;;;;;;;;;;;;;;-142.75;100.00;76149.06;5000036;28;20315;-82
2021/09/15 01:36:13;;;;;;;;;;;;;;;-142.75;100.00;76164.81;5002744;28;19917;-81
2021/09/15 01:38:38;;;;;;;;;;;;;;;-142.75;100.00;76156.94;5001410;28;20343;-82
2021/09/15 01:41:04;;;;;;;;;;;;;;;-142.75;100.00;76149.06;5005131;28;19968;-81
2021/09/15 01:43:29;;;;;;;;;;;;;;;-142.75;100.00;76158.91;5002447;28;20327;-82
2021/09/15 01:45:54;;;;;;;;;;;;;;;-142.75;100.00;76147.09;4998318;28;19913;-81
2021/09/15 01:48:19;;;;;;;;;;;;;;;-142.75;100.00;76164.81;5005389;28;20000;-81
2021/09/15 01:50:44;;;;;;;;;;;;;;;-142.75;100.00;76186.47;5001649;28;19913;-81
2021/09/15 01:53:09;;;;;;;;;;;;;;;-142.75;100.00;76178.59;5003012;28;19918;-81
2021/09/15 01:55:35;;;;;;;;;;;;;;;-142.75;100.00;76180.56;5002423;28;19967;-81
2021/09/15 01:58:00;;;;;;;;;;;;;;;-142.75;100.00;76164.81;4996826;28;19917;-81
2021/09/15 02:00:25;;;;;;;;;;;;;;;-142.75;100.00;76174.66;4989523;28;19917;-81
2021/09/15 02:02:51;;;;;;;;;;;;;;;-142.75;100.00;76174.66;5007528;28;20322;-82
2021/09/15 02:05:17;;;;;;;;;;;;;;;-142.75;100.00;76172.69;5004894;28;19936;-80
2021/09/15 02:07:42;;;;;;;;;;;;;;;-142.75;100.00;76172.69;4999976;28;20371;-81
2021/09/15 02:10:08;;;;;;;;;;;;;;;-142.75;100.00;76174.66;5001330;28;19976;-81
2021/09/15 02:12:33;;;;;;;;;;;;;;;-142.75;100.00;76172.69;4993665;28;19921;-82
2021/09/15 02:14:59;;;;;;;;;;;;;;;-142.75;100.00;76162.84;5002443;28;19913;-81
2021/09/15 02:17:24;;;;;;;;;;;;;;;-142.75;100.00;76162.84;5004673;28;19921;-82
2021/09/15 02:19:49;;;;;;;;;;;;;;;-142.75;100.00;76166.78;4994995;28;20039;-81
2021/09/15 02:22:15;;;;;;;;;;;;;;;-142.75;100.00;76170.72;4996326;28;19933;-83
2021/09/15 02:24:40;;;;;;;;;;;;;;;-142.75;100.00;76166.78;5003598;28;19917;-83
2021/09/15 02:27:05;;;;;;;;;;;;;;;-142.75;100.00;76162.84;4992430;28;19963;-82
2021/09/15 02:29:30;;;;;;;;;;;;;;;-142.75;100.00;76156.94;5004037;28;20469;-81
2021/09/15 02:31:56;;;;;;;;;;;;;;;-142.75;100.00;76156.94;5007587;28;19921;-81
2021/09/15 02:34:21;;;;;;;;;;;;;;;-142.75;100.00;76166.78;5004659;28;19960;-82
2021/09/15 02:36:46;;;;;;;;;;;;;;;-142.75;100.00;76162.84;5006329;28;19917;-83
2021/09/15 02:39:11;;;;;;;;;;;;;;;-142.75;100.00;76158.91;5006114;28;19989;-82
2021/09/15 02:41:36;;;;;;;;;;;;;;;-142.75;100.00;76156.94;4999135;28;19921;-82
2021/09/15 02:44:02;;;;;;;;;;;;;;;-142.75;100.00;76156.94;5006004;28;20544;-80
2021/09/15 02:46:28;;;;;;;;;;;;;;;-142.75;100.00;76168.75;5000410;28;19913;-82
2021/09/15 02:48:54;;;;;;;;;;;;;;;-142.75;100.00;76176.63;4998546;28;20367;-82
2021/09/15 02:51:19;;;;;;;;;;;;;;;-142.75;100.00;76180.56;5007173;28;19922;-81
2021/09/15 02:53:44;;;;;;;;;;;;;;;-142.75;100.00;76178.59;4995071;28;20012;-82
2021/09/15 02:56:09;;;;;;;;;;;;;;;-142.75;100.00;76176.63;5001115;28;19913;-82
2021/09/15 02:58:34;;;;;;;;;;;;;;;-142.75;100.00;76184.50;5009009;28;19917;-81
2021/09/15 03:01:00;;;;;;;;;;;;;;;-142.75;100.00;76180.56;4998919;28;19925;-81
2021/09/15 03:03:25;;;;;;;;;;;;;;;-142.75;100.00;76176.63;4995075;28;19914;-82
2021/09/15 03:05:50;;;;;;;;;;;;;;;-142.75;100.00;76186.47;5002972;28;20375;-82
2021/09/15 03:08:15;;;;;;;;;;;;;;;-142.75;100.00;76192.38;4994189;28;19913;-81
2021/09/15 03:10:41;;;;;;;;;;;;;;;-142.75;100.00;76196.31;4996557;28;19932;-82
2021/09/15 03:13:06;;;;;;;;;;;;;;;-142.75;100.00;76188.44;5003819;28;19913;-82
2021/09/15 03:15:31;;;;;;;;;;;;;;;-142.75;100.00;76178.59;5013627;28;19913;-82
2021/09/15 03:17:56;;;;;;;;;;;;;;;-142.75;100.00;76184.50;4994965;28;19967;-81
2021/09/15 03:20:21;;;;;;;;;;;;;;;-142.75;100.00;76200.25;5008785;28;19921;-81
2021/09/15 03:22:46;;;;;;;;;;;;;;;-142.75;100.00;76221.88;5005090;28;19963;-81
2021/09/15 03:25:12;;;;;;;;;;;;;;;-142.75;100.00;76223.84;5012397;28;19921;-83
2021/09/15 03:27:37;;;;;;;;;;;;;;;-142.75;100.00;76239.59;5003921;28;19913;-82
2021/09/15 03:30:04;;;;;;;;;;;;;;;-142.75;100.00;76259.28;5007778;28;19913;-82
2021/09/15 03:32:29;;;;;;;;;;;;;;;-142.75;100.00;76263.22;4995907;28;20399;-82
2021/09/15 03:34:54;;;;;;;;;;;;;;;-142.75;100.00;76278.97;4998528;28;19920;-82
2021/09/15 03:37:19;;;;;;;;;;;;;;;-142.75;100.00;76282.91;5013201;28;19936;-81
2021/09/15 03:39:45;;;;;;;;;;;;;;;-142.75;100.00;76284.88;5002136;28;19932;-81
2021/09/15 03:42:10;;;;;;;;;;;;;;;-142.75;100.00;76298.66;5007706;28;20339;-81
2021/09/15 03:44:35;;;;;;;;;;;;;;;-142.75;100.00;76304.56;5002212;28;19945;-81
2021/09/15 03:47:00;;;;;;;;;;;;;;;-142.75;100.00;76294.72;4997228;28;19917;-81
2021/09/15 03:49:25;;;;;;;;;;;;;;;-142.75;100.00;76277.00;5003092;28;19967;-82
2021/09/15 03:51:51;;;;;;;;;;;;;;;-142.75;100.00;76275.03;5005801;28;19921;-80
2021/09/15 03:54:16;;;;;;;;;;;;;;;-142.75;100.00;76275.03;4994815;28;19914;-82
2021/09/15 03:56:41;;;;;;;;;;;;;;;-142.75;100.00;76275.03;5001026;28;20426;-83
2021/09/15 03:59:07;;;;;;;;;;;;;;;-142.75;100.00;76253.38;5002074;28;19922;-83
2021/09/15 04:01:33;;;;;;;;;;;;;;;-142.75;100.00;76259.28;5012744;28;19952;-81
2021/09/15 04:03:58;;;;;;;;;;;;;;;-142.75;100.00;76247.47;5005111;28;19967;-82
2021/09/15 04:06:23;;;;;;;;;;;;;;;-142.75;100.00;76251.41;5006583;28;20001;-81
2021/09/15 04:08:48;;;;;;;;;;;;;;;-142.75;100.00;76247.47;4998950;28;19922;-82
2021/09/15 04:11:13;;;;;;;;;;;;;;;-142.75;100.00;76255.34;5004131;28;19924;-82
2021/09/15 04:13:38;;;;;;;;;;;;;;;-142.75;100.00;76263.22;4999062;28;19971;-82
2021/09/15 04:16:04;;;;;;;;;;;;;;;-142.75;100.00;76275.03;5002410;28;19936;-83
2021/09/15 04:18:29;;;;;;;;;;;;;;;-142.75;100.00;76273.06;5005900;28;19913;-82
2021/09/15 04:20:54;;;;;;;;;;;;;;;-142.75;100.00;76267.16;4997194;28;19924;-81
2021/09/15 04:31:35;;;;;;;;;;;;;;;-142.75;100.00;76298.66;5006517;28;19933;-81
2021/09/15 04:34:01;;;;;;;;;;;;;;;-142.75;100.00;76286.84;5001392;28;19917;-80
2021/09/15 04:36:26;;;;;;;;;;;;;;;-142.75;100.00;76278.97;5002778;28;19936;-82
2021/09/15 04:38:52;;;;;;;;;;;;;;;-142.75;100.00;76275.03;5003659;28;19999;-82
2021/09/15 04:41:17;;;;;;;;;;;;;;;-142.75;100.00;76280.94;5002978;28;20322;-81
2021/09/15 04:43:42;;;;;;;;;;;;;;;-142.75;100.00;76275.03;5001780;28;19914;-80
2021/09/15 04:46:08;;;;;;;;;;;;;;;-142.75;100.00;76288.81;5000590;28;20024;-80
2021/09/15 04:48:33;;;;;;;;;;;;;;;-142.75;100.00;76310.47;4994381;28;19932;-82
2021/09/15 04:50:58;;;;;;;;;;;;;;;-142.75;100.00;76322.28;4995344;28;19944;-81
2021/09/15 04:53:23;;;;;;;;;;;;;;;-142.75;100.00;76273.06;5001850;28;19957;-82
2021/09/15 04:55:48;;;;;;;;;;;;;;;-142.75;100.00;76280.94;4995141;28;20394;-82
2021/09/15 04:58:14;;;;;;;;;;;;;;;-142.75;100.00;76267.16;5001497;28;19921;-81
2021/09/15 05:00:39;;;;;;;;;;;;;;;-142.75;100.00;76288.81;4993205;28;19964;-81
2021/09/15 05:03:04;;;;;;;;;;;;;;;-142.75;100.00;76294.72;4999769;28;20388;-80
2021/09/15 05:05:29;;;;;;;;;;;;;;;-142.75;100.00;76239.59;4998731;28;20033;-82
2021/09/15 05:07:55;;;;;;;;;;;;;;;-142.75;100.00;76243.53;4997091;28;19932;-82
2021/09/15 05:10:24;;;;;;;;;;;;;;;-142.75;100.00;76231.72;5005360;28;19971;-82
2021/09/15 05:12:50;;;;;;;;;;;;;;;-142.75;100.00;76215.97;5008113;28;19913;-82
2021/09/15 05:15:15;;;;;;;;;;;;;;;-142.75;100.00;76214.00;5009918;28;20075;-82
2021/09/15 05:17:40;;;;;;;;;;;;;;;-142.75;100.00;76217.94;5000576;28;19922;-82
2021/09/15 05:20:06;;;;;;;;;;;;;;;-142.75;100.00;76204.16;5002308;28;20012;-80
2021/09/15 05:22:31;;;;;;;;;;;;;;;-142.75;100.00;76223.84;4998550;28;19920;-82
2021/09/15 05:24:56;;;;;;;;;;;;;;;-142.75;100.00;76231.72;4998669;28;20016;-82
2021/09/15 05:27:21;;;;;;;;;;;;;;;-142.75;100.00;76204.16;4993538;28;20368;-83
2021/09/15 05:29:47;;;;;;;;;;;;;;;-142.75;100.00;76210.06;5010320;28;19952;-80
2021/09/15 05:32:12;;;;;;;;;;;;;;;-142.75;100.00;76225.81;5003144;28;19999;-82
2021/09/15 05:34:37;;;;;;;;;;;;;;;-142.75;100.00;76227.78;5005206;28;20372;-81
2021/09/15 05:37:03;;;;;;;;;;;;;;;-142.75;100.00;76235.66;5002429;28;19913;-82
2021/09/15 05:39:28;;;;;;;;;;;;;;;-142.75;100.00;76231.72;5006993;28;19921;-82
2021/09/15 05:41:53;;;;;;;;;;;;;;;-142.75;100.00;76219.91;5002940;28;19967;-83
2021/09/15 05:44:18;;;;;;;;;;;;;;;-142.75;100.00;76214.00;5002007;28;19913;-82
2021/09/15 05:46:43;;;;;;;;;;;;;;;-142.75;100.00;76227.78;4998433;28;19963;-84
2021/09/15 05:49:09;;;;;;;;;;;;;;;-142.75;100.00;76253.38;4999855;28;20364;-83
2021/09/15 05:51:34;;;;;;;;;;;;;;;-142.75;100.00;76267.16;4996551;28;20323;-82
2021/09/15 05:53:59;;;;;;;;;;;;;;;-142.75;100.00;76271.09;4995557;28;20494;-82
2021/09/15 05:56:25;;;;;;;;;;;;;;;-142.75;100.00;76277.00;4989714;28;19936;-82
2021/09/15 05:58:50;;;;;;;;;;;;;;;-142.75;100.00;76282.91;4992405;28;19941;-83
2021/09/15 06:01:15;;;;;;;;;;;;;;;-142.75;100.00;76223.84;4991655;28;20015;-82
2021/09/15 06:03:41;;;;;;;;;;;;;;;-142.75;100.00;76217.94;4991975;28;19921;-80
2021/09/15 06:06:06;;;;;;;;;;;;;;;-142.75;100.00;76217.94;4988792;28;19920;-81
2021/09/15 06:08:31;;;;;;;;;;;;;;;-142.75;100.00;76184.50;4998306;28;20303;-82
2021/09/15 06:10:56;;;;;;;;;;;;;;;-142.75;100.00;76180.56;5010432;28;20314;-82
2021/09/15 06:13:22;;;;;;;;;;;;;;;-142.75;100.00;76174.66;5004422;28;19924;-82
2021/09/15 06:15:47;;;;;;;;;;;;;;;-142.75;100.00;76184.50;4991915;28;19968;-83
2021/09/15 06:18:12;;;;;;;;;;;;;;;-142.75;100.00;76180.56;4993815;28;19959;-82
2021/09/15 06:20:37;;;;;;;;;;;;;;;-142.75;100.00;76164.81;4999202;28;20315;-82
2021/09/15 06:23:03;;;;;;;;;;;;;;;-142.75;100.00;76141.19;5002163;28;20004;-83
2021/09/15 06:25:29;;;;;;;;;;;;;;;-142.75;100.00;76129.38;4995219;28;20376;-83
2021/09/15 06:27:55;;;;;;;;;;;;;;;-142.75;100.00;76133.31;4992390;28;19960;-83
2021/09/15 06:30:21;;;;;;;;;;;;;;;-142.75;100.00;76123.47;5002893;28;20295;-81
2021/09/15 06:32:46;;;;;;;;;;;;;;;-142.75;100.00;76123.47;5007403;28;19921;-82
2021/09/15 06:35:11;;;;;;;;;;;;;;;-142.75;100.00;76125.44;4998608;28;19914;-83
2021/09/15 06:37:37;;;;;;;;;;;;;;;-142.75;100.00;76117.56;4997004;28;19913;-83
2021/09/15 06:40:02;;;;;;;;;;;;;;;-142.75;100.00;76117.56;4998727;28;19925;-83
2021/09/15 06:42:27;;;;;;;;;;;;;;;-142.75;100.00;76109.69;4999319;28;19921;-83
2021/09/15 06:44:52;;;;;;;;;;;;;;;-142.75;100.00;76103.78;5003832;28;19913;-81
2021/09/15 06:47:18;;;;;;;;;;;;;;;-142.75;100.00;76097.88;4992607;28;19952;-80
2021/09/15 06:49:43;;;;;;;;;;;;;;;-142.75;100.00;76105.75;4993298;28;20288;-83
2021/09/15 06:52:08;;;;;;;;;;;;;;;-142.75;100.00;76095.91;4993110;28;19960;-82
2021/09/15 06:54:33;;;;;;;;;;;;;;;-142.75;100.00;76086.06;4992085;28;19914;-82
2021/09/15 06:56:58;;;;;;;;;;;;;;;-142.75;100.00;76068.38;4992913;28;20303;-82
2021/09/15 06:59:25;;;;;;;;;;;;;;;-142.75;100.00;76056.56;4993307;28;19925;-82
2021/09/15 07:01:50;;;;;;;;;;;;;;;-142.75;100.00;76046.72;5004730;28;19917;-82
2021/09/15 07:04:15;;;;;;;;;;;;;;;-142.75;100.00;76025.06;5011027;28;19921;-82
2021/09/15 07:06:40;;;;;;;;;;;;;;;-142.75;100.00;76007.34;5011435;28;20012;-81
2021/09/15 07:09:05;;;;;;;;;;;;;;;-142.75;100.00;75997.50;5012489;28;19960;-81
2021/09/15 07:11:30;;;;;;;;;;;;;;;-142.75;100.00;75977.81;5010647;28;19921;-80
2021/09/15 07:13:57;;;;;;;;;;;;;;;-142.75;100.00;75960.13;5010746;28;19920;-80
2021/09/15 07:16:23;;;;;;;;;;;;;;;-142.75;100.00;75944.38;5011017;28;20007;-80
2021/09/15 07:18:48;;;;;;;;;;;;;;;-142.75;100.00;75887.28;5011911;28;20347;-82
2021/09/15 07:21:13;;;;;;;;;;;;;;;-142.75;100.00;75804.63;5010747;28;19926;-82
2021/09/15 07:23:38;;;;;;;;;;;;;;;-142.75;100.00;75700.31;5011981;28;19913;-80
2021/09/15 07:26:04;;;;;;;;;;;;;;;-142.75;100.00;75637.34;5011760;28;19920;-80
2021/09/15 07:28:29;;;;;;;;;;;;;;;-142.75;100.00;75605.84;5000923;28;19917;-82
2021/09/15 07:30:54;;;;;;;;;;;;;;;-142.75;97.43;75596.00;4991003;28;19943;-80
2021/09/15 07:33:19;;;;;;;;;;;;;;;-142.75;95.29;75613.72;4992516;28;19921;-81
2021/09/15 07:35:44;;;;;;;;;;;;;;;-142.75;94.93;75617.66;4991353;28;20341;-83
2021/09/15 07:38:09;;;;;;;;;;;;;;;-142.75;94.02;75635.38;4996514;28;19937;-82
2021/09/15 07:40:35;;;;;;;;;;;;;;;-142.75;91.00;75641.28;5010676;28;19917;-80
2021/09/15 07:43:00;;;;;;;;;;;;;;;-142.75;93.12;75664.91;5012663;28;19917;-82
2021/09/15 07:45:26;;;;;;;;;;;;;;;-142.75;89.93;75680.63;5013022;28;19967;-81
2021/09/15 07:47:52;;;;;;;;;;;;;;;-142.75;90.63;75716.06;5011377;28;19913;-81
2021/09/15 07:50:17;;;;;;;;;;;;;;;-142.75;92.24;75735.75;5011168;28;20443;-83
2021/09/15 07:52:42;;;;;;;;;;;;;;;-142.75;90.89;75767.22;5007143;28;19913;-81
2021/09/15 07:55:07;;;;;;;;;;;;;;;-142.75;92.13;75790.84;4995372;28;19949;-82
2021/09/15 07:57:33;;;;;;;;;;;;;;;-142.75;92.03;75808.56;4994442;28;19914;-80
2021/09/15 07:59:58;;;;;;;;;;;;;;;-142.75;93.85;75822.34;4995058;28;19918;-83
2021/09/15 08:02:23;;;;;;;;;;;;;;;-142.75;95.07;75834.16;4992985;28;19920;-81
2021/09/15 08:04:49;;;;;;;;;;;;;;;-142.75;93.67;75834.16;4994045;28;19918;-81
2021/09/15 08:07:14;;;;;;;;;;;;;;;-142.75;95.00;75838.09;4992993;28;20719;-80
2021/09/15 08:09:39;;;;;;;;;;;;;;;-142.75;94.30;75844.00;4993135;28;19961;-82
2021/09/15 08:12:04;;;;;;;;;;;;;;;-142.75;93.38;75857.78;4993711;28;19921;-80
2021/09/15 08:14:30;;;;;;;;;;;;;;;-142.75;93.33;75873.50;4994172;28;19917;-81
2021/09/15 08:16:55;;;;;;;;;;;;;;;-142.75;94.43;75877.44;4992662;28;19913;-81
2021/09/15 08:19:22;;;;;;;;;;;;;;;-142.75;92.23;75893.19;5011773;28;19913;-81
2021/09/15 08:21:47;;;;;;;;;;;;;;;-142.75;92.93;75908.94;5013443;28;19924;-81
2021/09/15 08:24:13;;;;;;;;;;;;;;;-142.75;94.24;75914.84;5012219;28;19913;-80
2021/09/15 08:26:39;;;;;;;;;;;;;;;-142.75;95.89;75916.81;5013020;28;19914;-81
2021/09/15 08:29:05;;;;;;;;;;;;;;;-142.75;94.69;75920.75;5012704;28;19947;-79
2021/09/15 08:31:30;;;;;;;;;;;;;;;-142.75;96.47;75906.97;4999213;28;19937;-81
2021/09/15 08:33:55;;;;;;;;;;;;;;;-142.75;97.67;75903.03;4992084;28;19921;-80
2021/09/15 08:36:20;;;;;;;;;;;;;;;-142.75;96.92;75897.13;4993825;28;20060;-80
2021/09/15 08:38:45;;;;;;;;;;;;;;;-142.75;94.68;75889.25;4991769;28;20365;-80
2021/09/15 08:41:10;;;;;;;;;;;;;;;-142.75;94.18;75885.31;4993523;28;19922;-81
2021/09/15 08:43:37;;;;;;;;;;;;;;;-142.75;91.59;75863.66;4992156;28;20366;-81
2021/09/15 08:46:04;;;;;;;;;;;;;;;-142.75;91.04;75830.22;4992684;28;19924;-81
2021/09/15 08:48:31;;;;;;;;;;;;;;;-142.75;87.40;75818.41;4992503;28;20380;-81
2021/09/15 08:50:56;;;;;;;;;;;;;;;-142.75;85.89;75786.91;4993083;28;20502;-81
2021/09/15 08:53:21;;;;;;;;;;;;;;;-142.75;83.28;75714.09;4995312;28;19940;-82
2021/09/15 08:55:47;;;;;;;;;;;;;;;-142.75;81.64;75680.63;4992121;28;19937;-81
2021/09/15 08:58:14;;;;;;;;;;;;;;;-142.75;80.61;75657.03;4992718;28;19914;-80
2021/09/15 09:00:39;;;;;;;;;;;;;;;-142.75;78.95;75641.28;4992614;28;19918;-79
2021/09/15 09:03:04;;;;;;;;;;;;;;;-142.75;79.05;75633.41;4990886;28;20004;-81
2021/09/15 09:05:29;;;;;;;;;;;;;;;-142.75;81.87;75720.00;4991511;28;20292;-81
2021/09/15 09:07:54;;;;;;;;;;;;;;;-142.75;78.30;75700.31;5010894;28;19914;-79
2021/09/15 09:10:20;;;;;;;;;;;;;;;-142.75;77.34;75700.31;5011002;28;19917;-81
2021/09/15 09:12:45;;;;;;;;;;;;;;;-142.75;77.50;75729.84;4999896;28;19961;-80
2021/09/15 09:15:25;;;;;;;;;;;;;;;-142.75;78.96;75739.69;4992952;28;19922;-79
2021/09/15 09:17:51;;;;;;;;;;;;;;;-142.75;78.60;75763.28;5010892;28;20299;-81
2021/09/15 09:20:20;;;;;;;;;;;;;;;-142.75;79.93;75747.56;5010601;28;20407;-80
2021/09/15 09:22:54;;;;;;;;;;;;;;;-142.75;81.59;75755.44;5011969;28;19925;-80
2021/09/15 09:25:20;;;;;;;;;;;;;;;-142.75;81.05;75747.56;5010975;28;19921;-80
2021/09/15 09:27:45;;;;;;;;;;;;;;;-142.75;79.88;75739.69;5012324;28;19913;-81
2021/09/15 09:30:29;;;;;;;;;;;;;;;-142.75;79.26;75725.91;5010476;28;20014;-79
2021/09/15 09:32:54;;;;;;;;;;;;;;;-142.75;78.43;75721.97;5011716;28;19924;-80
2021/09/15 09:35:19;;;;;;;;;;;;;;;-142.75;78.72;75735.75;5011920;28;19913;-81
2021/09/15 09:37:44;;;;;;;;;;;;;;;-142.75;75.80;75739.69;5010526;28;20014;-81
2021/09/15 09:40:10;;;;;;;;;;;;;;;-142.75;75.63;75747.56;5000044;28;19924;-80
2021/09/15 09:42:38;;;;;;;;;;;;;;;-142.75;77.06;75759.38;5011421;28;19921;-80
2021/09/15 09:45:06;;;;;;;;;;;;;;;-142.75;77.17;75765.25;5010491;28;19939;-79
2021/09/15 09:47:32;;;;;;;;;;;;;;;-142.75;78.88;75767.22;4994712;28;19976;-80
2021/09/15 09:49:58;;;;;;;;;;;;;;;-142.75;79.56;75767.22;4989997;28;19913;-80
2021/09/15 09:52:23;;;;;;;;;;;;;;;-142.75;77.65;75771.16;4999432;28;20011;-81
2021/09/15 09:54:56;;;;;;;;;;;;;;;-142.75;77.81;75784.94;5010624;28;19913;-80
2021/09/15 09:57:22;;;;;;;;;;;;;;;-142.75;77.41;75796.75;5011493;28;19913;-79
2021/09/15 09:59:47;;;;;;;;;;;;;;;-142.75;76.60;75820.38;4994587;28;20012;-81
2021/09/15 10:02:12;;;;;;;;;;;;;;;-142.75;78.62;75808.56;4990398;28;19913;-79
2021/09/15 10:04:37;;;;;;;;;;;;;;;-142.75;79.15;75802.66;5004647;28;19914;-80
2021/09/15 10:07:03;;;;;;;;;;;;;;;-142.75;79.48;75822.34;4989484;28;19968;-80
2021/09/15 10:09:29;;;;;;;;;;;;;;;-142.75;83.57;75873.50;4995283;28;20024;-80
2021/09/15 10:11:54;;;;;;;;;;;;;;;-142.75;86.67;75869.56;4992268;28;19914;-79
2021/09/15 10:14:20;;;;;;;;;;;;;;;-142.75;85.41;75877.44;4995817;28;19925;-79
2021/09/15 10:16:48;;;;;;;;;;;;;;;-142.75;84.92;75873.50;4994595;28;19941;-79
2021/09/15 10:19:15;;;;;;;;;;;;;;;-142.75;83.74;75861.69;4990982;28;19914;-81
2021/09/15 10:21:40;;;;;;;;;;;;;;;-142.75;84.99;75849.91;4990294;28;19969;-80
2021/09/15 10:24:05;;;;;;;;;;;;;;;-142.75;84.82;75845.97;4990606;28;19945;-80
2021/09/15 10:26:35;;;;;;;;;;;;;;;-142.75;85.44;75834.16;4992068;28;19991;-79
2021/09/15 10:29:19;;;;;;;;;;;;;;;-142.75;84.39;75842.03;4990719;28;19913;-81
2021/09/15 10:31:56;;;;;;;;;;;;;;;-142.75;79.82;75777.06;4994629;28;20375;-80
2021/09/15 10:34:40;;;;;;;;;;;;;;;-142.75;82.09;75769.19;4992395;28;19941;-80
2021/09/15 10:37:11;;;;;;;;;;;;;;;-142.75;79.17;75747.56;4992617;28;19914;-80
2021/09/15 10:39:54;;;;;;;;;;;;;;;-142.75;78.80;75775.09;4992369;28;19914;-81
2021/09/15 10:42:53;;;;;;;;;;;;;;;-142.75;78.42;75712.13;4990618;28;19914;-81
2021/09/15 10:45:20;;;;;;;;;;;;;;;-142.75;77.05;75712.13;4992227;28;19993;-81
2021/09/15 10:47:59;;;;;;;;;;;;;;;-142.75;77.09;75718.03;5011711;28;19917;-80
2021/09/15 10:50:27;;;;;;;;;;;;;;;-142.75;76.17;75720.00;5011878;28;20004;-80
2021/09/15 10:52:53;;;;;;;;;;;;;;;-142.75;76.08;75712.13;4992241;28;19914;-80
2021/09/15 10:55:18;;;;;;;;;;;;;;;-142.75;76.33;75692.44;4999024;28;19931;-81
2021/09/15 10:57:44;;;;;;;;;;;;;;;-142.75;78.26;75680.63;4993293;28;19921;-80
2021/09/15 11:00:15;;;;;;;;;;;;;;;-142.75;76.97;75676.69;5000667;28;20336;-79
2021/09/15 11:02:41;;;;;;;;;;;;;;;-142.75;78.80;75655.06;4992224;28;19926;-82
2021/09/15 11:05:25;;;;;;;;;;;;;;;-142.75;77.19;75647.19;5002372;28;19936;-79
2021/09/15 11:07:50;;;;;;;;;;;;;;;-142.75;74.10;75653.09;5005168;28;19914;-80
2021/09/15 11:10:33;;;;;;;;;;;;;;;-142.75;72.39;75664.91;5003330;28;19914;-81
2021/09/15 11:12:59;;;;;;;;;;;;;;;-142.75;73.78;75674.72;4993280;28;20001;-80
2021/09/15 11:15:31;;;;;;;;;;;;;;;-142.75;74.10;75688.50;5000086;28;19949;-81
2021/09/15 11:17:57;;;;;;;;;;;;;;;-142.75;73.77;75690.47;5010436;28;19913;-81
2021/09/15 11:20:23;;;;;;;;;;;;;;;-142.75;74.39;75690.47;5009770;28;19940;-79
2021/09/15 11:22:49;;;;;;;;;;;;;;;-142.75;76.18;75690.47;5010121;28;19913;-80
2021/09/15 11:25:21;;;;;;;;;;;;;;;-142.75;75.85;75710.16;5012421;28;19917;-80
2021/09/15 11:28:05;;;;;;;;;;;;;;;-142.75;76.00;75725.91;5000652;28;19917;-79
2021/09/15 11:30:30;;;;;;;;;;;;;;;-142.75;76.15;75731.81;4998227;28;19965;-81
2021/09/15 11:32:57;;;;;;;;;;;;;;;-142.75;77.77;75743.63;4999744;28;19922;-79
2021/09/15 11:35:22;;;;;;;;;;;;;;;-142.75;76.46;75763.28;4997115;28;19943;-80
2021/09/15 11:37:47;;;;;;;;;;;;;;;-142.75;76.77;75779.03;4998221;28;19914;-80
2021/09/15 11:40:12;;;;;;;;;;;;;;;-142.75;76.99;75779.03;5005011;28;19925;-79
2021/09/15 11:42:37;;;;;;;;;;;;;;;-142.75;79.44;75781.00;4998534;28;19936;-79
2021/09/15 11:45:13;;;;;;;;;;;;;;;-142.75;80.96;75818.41;4994349;28;19913;-81
2021/09/15 11:47:38;;;;;;;;;;;;;;;-142.75;78.33;75777.06;4999238;28;19914;-79
2021/09/15 11:50:19;;;;;;;;;;;;;;;-142.75;76.43;75767.22;5001962;28;20292;-79
2021/09/15 11:52:47;;;;;;;;;;;;;;;-142.75;76.28;75765.25;5008267;28;20387;-80
2021/09/15 11:55:14;;;;;;;;;;;;;;;-142.75;76.74;75769.19;5001157;28;20067;-82
2021/09/15 11:57:47;;;;;;;;;;;;;;;-142.75;75.76;75749.53;4993337;28;20308;-80
2021/09/15 12:00:12;;;;;;;;;;;;;;;-142.75;74.87;75739.69;5014858;28;20272;-80
2021/09/15 12:02:39;;;;;;;;;;;;;;;-142.75;73.60;75759.38;5002746;28;19914;-78
2021/09/15 12:05:05;;;;;;;;;;;;;;;-142.75;76.46;75771.16;5003349;28;20291;-79
2021/09/15 12:07:30;;;;;;;;;;;;;;;-142.75;76.56;75784.94;5012342;28;19920;-81
2021/09/15 12:09:55;;;;;;;;;;;;;;;-142.75;78.13;75794.78;5001004;28;20008;-79
2021/09/15 12:12:21;;;;;;;;;;;;;;;-142.75;78.59;75800.69;5004324;28;20024;-80
2021/09/15 12:14:47;;;;;;;;;;;;;;;-142.75;78.75;75790.84;5004927;28;19929;-82
2021/09/15 12:17:13;;;;;;;;;;;;;;;-142.75;77.85;75786.91;5007512;28;19953;-80
2021/09/15 12:19:46;;;;;;;;;;;;;;;-142.75;78.15;75775.09;5006392;28;20315;-81
2021/09/15 12:22:17;;;;;;;;;;;;;;;-142.75;75.14;75763.28;5002700;28;19925;-80
2021/09/15 12:24:54;;;;;;;;;;;;;;;-142.75;74.20;75739.69;5005657;28;20342;-79